Time;durP1;ratioP1;P1;durP2;ratioP2;P2;SDS_P1;SDS_P2;PMS_P1;PMS_P2;Temp;Humidity;BMP_temperature;BMP_pressure;BME280_temperature;BME280_humidity;BME280_pressure;Samples;Min_cycle;Max_cycle;Signal;HPM_P1;HPM_P2
2022/11/26 00:00:20;;;;;;;;;;;5.30;99.90;;;;;;5075784;28;19919;-69
2022/11/26 00:02:46;;;;;;;;;;;5.30;99.90;;;;;;5076028;28;19912;-69
2022/11/26 00:05:13;;;;;;;;;;;5.30;99.90;;;;;;5075672;28;19966;-70
2022/11/26 00:07:39;;;;;;;;;;;5.30;99.90;;;;;;5075699;28;20006;-69
2022/11/26 00:10:12;;;;;;;;;;;5.20;99.90;;;;;;5075549;28;19962;-69
2022/11/26 00:12:38;;;;;;;;;;;5.20;99.90;;;;;;5075292;28;19921;-69
2022/11/26 00:15:21;;;;;;;;;;;5.10;99.90;;;;;;5075554;28;19916;-69
2022/11/26 00:17:47;;;;;;;;;;;5.20;99.90;;;;;;5075502;28;19952;-69
2022/11/26 00:20:12;;;;;;;;;;;5.10;99.90;;;;;;5075637;28;19915;-70
2022/11/26 00:22:40;;;;;;;;;;;5.10;99.90;;;;;;5057605;28;20496;-70
2022/11/26 00:25:11;;;;;;;;;;;5.00;99.90;;;;;;5075350;28;20366;-69
2022/11/26 00:27:37;;;;;;;;;;;5.00;99.90;;;;;;5075296;28;20439;-69
2022/11/26 00:30:05;;;;;;;;;;;5.00;99.90;;;;;;5075514;28;19912;-69
2022/11/26 00:32:30;;;;;;;;;;;5.00;99.90;;;;;;5075141;28;20437;-70
2022/11/26 00:34:56;;;;;;;;;;;5.10;99.90;;;;;;5075076;28;19955;-69
2022/11/26 00:37:24;;;;;;;;;;;5.10;99.90;;;;;;5075091;28;19993;-69
2022/11/26 00:39:50;;;;;;;;;;;5.30;99.90;;;;;;5057114;28;19908;-70
2022/11/26 00:42:16;;;;;;;;;;;5.40;99.90;;;;;;5075377;28;19966;-70
2022/11/26 00:44:42;;;;;;;;;;;5.50;99.90;;;;;;5074886;28;19908;-69
2022/11/26 00:47:08;;;;;;;;;;;5.60;99.90;;;;;;5074942;28;20012;-69
2022/11/26 00:49:33;;;;;;;;;;;5.60;99.90;;;;;;5074838;28;19909;-69
2022/11/26 00:51:59;;;;;;;;;;;5.70;99.90;;;;;;5074796;28;19962;-69
2022/11/26 00:54:24;;;;;;;;;;;5.70;99.90;;;;;;5074727;28;19909;-69
2022/11/26 00:56:50;;;;;;;;;;;5.70;99.90;;;;;;5073891;28;19908;-69
2022/11/26 00:59:18;;;;;;;;;;;5.70;99.90;;;;;;5074645;28;19908;-69
2022/11/26 01:01:44;;;;;;;;;;;5.70;99.90;;;;;;5074825;28;19913;-69
2022/11/26 01:04:09;;;;;;;;;;;5.60;99.90;;;;;;5074553;28;19995;-69
2022/11/26 01:06:37;;;;;;;;;;;5.60;99.90;;;;;;5074759;28;19912;-70
2022/11/26 01:09:04;;;;;;;;;;;5.60;99.90;;;;;;5074462;28;19909;-69
2022/11/26 01:11:29;;;;;;;;;;;5.60;99.90;;;;;;5074244;28;19940;-70
2022/11/26 01:13:54;;;;;;;;;;;5.60;99.90;;;;;;5074291;28;20386;-70
2022/11/26 01:16:22;;;;;;;;;;;5.70;99.90;;;;;;5074326;28;20340;-69
2022/11/26 01:18:49;;;;;;;;;;;5.60;99.90;;;;;;5074502;28;19915;-70
2022/11/26 01:21:14;;;;;;;;;;;5.70;99.90;;;;;;5074287;28;19916;-70
2022/11/26 01:23:40;;;;;;;;;;;5.60;99.90;;;;;;5074492;28;19913;-70
2022/11/26 01:26:06;;;;;;;;;;;5.60;99.90;;;;;;5074446;28;20366;-69
2022/11/26 01:28:31;;;;;;;;;;;5.50;99.90;;;;;;5074193;28;19913;-69
2022/11/26 01:30:56;;;;;;;;;;;5.40;99.90;;;;;;5074339;28;19908;-69
2022/11/26 01:33:22;;;;;;;;;;;5.50;99.90;;;;;;5073981;28;19939;-69
2022/11/26 01:35:47;;;;;;;;;;;5.50;99.90;;;;;;5056092;28;19962;-69
2022/11/26 01:38:14;;;;;;;;;;;5.40;99.90;;;;;;5074234;28;19944;-70
2022/11/26 01:40:59;;;;;;;;;;;5.30;99.90;;;;;;5073904;28;19916;-69
2022/11/26 01:43:27;;;;;;;;;;;5.20;99.90;;;;;;5073792;28;19912;-69
2022/11/26 01:45:55;;;;;;;;;;;5.10;99.90;;;;;;5073850;28;19909;-69
2022/11/26 01:48:30;;;;;;;;;;;5.10;99.90;;;;;;5073789;28;19924;-69
2022/11/26 01:53:53;;;;;;;;;;;5.10;99.90;;;;;;5091349;27;19913;-68
2022/11/26 01:56:21;;;;;;;;;;;5.10;99.90;;;;;;5091291;28;20023;-68
2022/11/26 01:58:49;;;;;;;;;;;5.20;99.90;;;;;;5089900;28;19915;-69
2022/11/26 02:01:15;;;;;;;;;;;5.30;99.90;;;;;;5091055;28;20003;-69
2022/11/26 02:03:48;;;;;;;;;;;5.20;99.90;;;;;;5091330;28;20378;-68
2022/11/26 02:06:16;;;;;;;;;;;5.20;99.90;;;;;;5091223;28;19912;-68
2022/11/26 02:08:42;;;;;;;;;;;5.30;99.90;;;;;;5090990;28;20374;-69
2022/11/26 02:11:13;;;;;;;;;;;5.40;99.90;;;;;;5091050;28;19957;-68
2022/11/26 02:13:38;;;;;;;;;;;5.50;99.90;;;;;;5090927;28;20416;-68
2022/11/26 02:16:09;;;;;;;;;;;5.50;99.90;;;;;;5090839;28;19917;-69
2022/11/26 02:18:36;;;;;;;;;;;5.50;99.90;;;;;;5090768;28;19908;-68
2022/11/26 02:21:04;;;;;;;;;;;5.50;99.90;;;;;;5091017;28;19962;-68
2022/11/26 02:23:41;;;;;;;;;;;5.50;99.90;;;;;;5089449;28;19908;-69
2022/11/26 02:26:25;;;;;;;;;;;5.40;99.90;;;;;;5089340;28;19908;-68
2022/11/26 02:34:27;;;;;;;;;;;5.60;99.90;;;;;;5091290;27;19912;-68
2022/11/26 02:36:56;;;;;;;;;;;5.70;99.90;;;;;;5091210;28;19912;-68
2022/11/26 02:39:23;;;;;;;;;;;5.70;99.90;;;;;;5091372;28;19908;-68
2022/11/26 02:41:49;;;;;;;;;;;5.80;99.90;;;;;;5091024;28;19961;-68
2022/11/26 02:44:16;;;;;;;;;;;5.70;99.90;;;;;;5091060;28;19912;-68
2022/11/26 02:46:44;;;;;;;;;;;5.70;99.90;;;;;;5091258;28;20483;-68
2022/11/26 02:49:11;;;;;;;;;;;5.60;99.90;;;;;;5090933;28;19908;-68
2022/11/26 02:51:37;;;;;;;;;;;5.60;99.90;;;;;;5090905;28;19909;-68
2022/11/26 02:54:05;;;;;;;;;;;5.50;99.90;;;;;;5090764;28;19919;-67
2022/11/26 02:56:30;;;;;;;;;;;5.40;99.90;;;;;;5091082;28;20358;-67
2022/11/26 02:58:56;;;;;;;;;;;5.40;99.90;;;;;;5090753;28;19909;-68
2022/11/26 03:01:28;;;;;;;;;;;5.30;99.90;;;;;;5090703;28;20374;-68
2022/11/26 03:03:55;;;;;;;;;;;5.20;99.90;;;;;;5090697;28;19943;-69
2022/11/26 03:06:21;;;;;;;;;;;5.10;99.90;;;;;;5090599;28;19912;-69
2022/11/26 03:08:46;;;;;;;;;;;4.90;99.90;;;;;;5090504;28;19932;-69
2022/11/26 03:11:12;;;;;;;;;;;4.80;99.90;;;;;;5090479;28;19966;-69
2022/11/26 03:13:37;;;;;;;;;;;4.80;99.90;;;;;;5090373;28;19922;-69
2022/11/26 03:16:03;;;;;;;;;;;4.80;99.90;;;;;;5090742;28;19910;-69
2022/11/26 03:18:28;;;;;;;;;;;4.80;99.90;;;;;;5090433;28;19908;-69
2022/11/26 03:20:54;;;;;;;;;;;4.90;99.90;;;;;;5090640;28;19908;-69
2022/11/26 03:23:19;;;;;;;;;;;5.10;99.90;;;;;;5090405;28;20366;-69
2022/11/26 03:25:45;;;;;;;;;;;5.00;99.90;;;;;;5090262;28;20289;-69
2022/11/26 03:28:10;;;;;;;;;;;4.90;99.90;;;;;;5090489;28;19908;-69
2022/11/26 03:30:36;;;;;;;;;;;4.90;99.90;;;;;;5088979;28;19908;-69
2022/11/26 03:33:01;;;;;;;;;;;4.80;99.90;;;;;;5100245;28;20385;-69
2022/11/26 03:35:27;;;;;;;;;;;4.80;99.90;;;;;;5110697;28;19912;-69
2022/11/26 03:37:52;;;;;;;;;;;4.80;99.90;;;;;;5110619;28;20382;-69
2022/11/26 03:40:18;;;;;;;;;;;4.70;99.90;;;;;;5110334;28;19908;-69
2022/11/26 03:42:43;;;;;;;;;;;4.70;99.90;;;;;;5110259;28;19965;-69
2022/11/26 03:45:10;;;;;;;;;;;4.70;99.90;;;;;;5099551;28;19961;-69
2022/11/26 03:47:36;;;;;;;;;;;4.70;99.90;;;;;;5096625;28;19991;-69
2022/11/26 03:50:02;;;;;;;;;;;4.60;99.90;;;;;;5096839;28;19970;-69
2022/11/26 03:52:27;;;;;;;;;;;4.50;99.90;;;;;;5096445;28;19916;-69
2022/11/26 03:54:53;;;;;;;;;;;4.40;99.90;;;;;;5096510;28;20274;-69
2022/11/26 03:57:19;;;;;;;;;;;4.30;99.90;;;;;;5096650;28;19983;-69
2022/11/26 03:59:44;;;;;;;;;;;4.30;99.90;;;;;;5096382;28;19985;-69
2022/11/26 04:02:09;;;;;;;;;;;4.30;99.90;;;;;;5096316;28;19916;-69
2022/11/26 04:04:35;;;;;;;;;;;4.30;99.90;;;;;;5096269;28;19991;-69
2022/11/26 04:07:00;;;;;;;;;;;4.30;99.90;;;;;;5096495;28;19915;-69
2022/11/26 04:09:26;;;;;;;;;;;4.40;99.90;;;;;;5096208;28;19908;-69
2022/11/26 04:11:51;;;;;;;;;;;4.40;99.90;;;;;;5096074;28;19912;-69
2022/11/26 04:14:17;;;;;;;;;;;4.40;99.90;;;;;;5078122;28;19916;-69
2022/11/26 04:16:42;;;;;;;;;;;4.30;99.90;;;;;;5096059;28;19914;-68
2022/11/26 04:19:08;;;;;;;;;;;4.30;99.90;;;;;;5096023;28;19953;-69
2022/11/26 04:21:33;;;;;;;;;;;4.30;99.90;;;;;;5096007;28;19908;-69
2022/11/26 04:23:59;;;;;;;;;;;4.20;99.90;;;;;;5095911;28;19968;-69
2022/11/26 04:26:24;;;;;;;;;;;4.20;99.90;;;;;;5096124;28;19928;-69
2022/11/26 04:28:49;;;;;;;;;;;4.10;99.90;;;;;;5096067;28;19915;-69
2022/11/26 04:31:15;;;;;;;;;;;4.10;99.90;;;;;;5095866;28;20361;-69
2022/11/26 04:33:41;;;;;;;;;;;4.10;99.90;;;;;;5095562;28;19920;-69
2022/11/26 04:36:07;;;;;;;;;;;4.10;99.90;;;;;;5077680;28;19912;-68
2022/11/26 04:38:32;;;;;;;;;;;4.10;99.90;;;;;;5095963;28;19908;-69
2022/11/26 04:40:58;;;;;;;;;;;4.10;99.90;;;;;;5095598;28;20441;-68
2022/11/26 04:43:23;;;;;;;;;;;4.10;99.90;;;;;;5095522;28;19915;-68
2022/11/26 04:45:48;;;;;;;;;;;4.10;99.90;;;;;;5077341;28;19908;-69
2022/11/26 04:48:14;;;;;;;;;;;4.10;99.90;;;;;;5095711;28;19908;-69
2022/11/26 04:50:39;;;;;;;;;;;4.10;99.90;;;;;;5095358;28;19951;-68
2022/11/26 04:53:05;;;;;;;;;;;4.10;99.90;;;;;;5095257;28;19912;-69
2022/11/26 04:55:30;;;;;;;;;;;4.10;99.90;;;;;;5076438;28;19908;-68
2022/11/26 04:57:56;;;;;;;;;;;4.10;99.90;;;;;;5094968;28;20003;-69
2022/11/26 05:00:21;;;;;;;;;;;4.20;99.90;;;;;;5095462;28;19908;-69
2022/11/26 05:02:47;;;;;;;;;;;4.10;99.90;;;;;;5095409;28;19934;-69
2022/11/26 05:05:12;;;;;;;;;;;4.10;99.90;;;;;;5095162;28;20012;-68
2022/11/26 05:07:38;;;;;;;;;;;4.00;99.90;;;;;;5095100;28;19908;-68
2022/11/26 05:10:04;;;;;;;;;;;4.00;99.90;;;;;;5095325;28;19958;-68
2022/11/26 05:12:30;;;;;;;;;;;4.00;99.90;;;;;;5095162;28;20038;-68
2022/11/26 05:14:55;;;;;;;;;;;3.90;99.90;;;;;;5094924;28;20424;-69
2022/11/26 05:17:21;;;;;;;;;;;3.90;99.90;;;;;;5094871;28;19909;-69
2022/11/26 05:19:46;;;;;;;;;;;3.80;99.90;;;;;;5094830;28;19908;-69
2022/11/26 05:22:11;;;;;;;;;;;3.80;99.90;;;;;;5076690;28;19961;-68
2022/11/26 05:24:37;;;;;;;;;;;3.80;99.90;;;;;;5094723;28;19912;-69
2022/11/26 05:27:02;;;;;;;;;;;3.70;99.90;;;;;;5094684;28;19915;-68
2022/11/26 05:29:28;;;;;;;;;;;3.70;99.90;;;;;;5094633;28;19914;-69
2022/11/26 05:31:53;;;;;;;;;;;3.80;99.90;;;;;;5094580;28;19914;-68
2022/11/26 05:34:19;;;;;;;;;;;3.70;99.90;;;;;;5094521;28;19948;-68
2022/11/26 05:36:45;;;;;;;;;;;3.70;99.90;;;;;;5094768;28;19908;-69
2022/11/26 05:39:10;;;;;;;;;;;3.70;99.90;;;;;;5094733;28;20285;-68
2022/11/26 05:41:36;;;;;;;;;;;3.70;99.90;;;;;;5076435;28;20358;-69
2022/11/26 05:44:01;;;;;;;;;;;3.80;99.90;;;;;;5094314;28;20018;-69
2022/11/26 05:46:27;;;;;;;;;;;3.80;99.90;;;;;;5094346;28;19912;-69
2022/11/26 05:48:52;;;;;;;;;;;4.10;99.90;;;;;;5094269;28;19908;-68
2022/11/26 05:51:18;;;;;;;;;;;4.10;99.90;;;;;;5094248;28;19908;-69
2022/11/26 05:53:43;;;;;;;;;;;4.00;99.90;;;;;;5094121;28;19919;-68
2022/11/26 05:56:09;;;;;;;;;;;3.90;99.90;;;;;;5094442;28;19909;-69
2022/11/26 05:58:34;;;;;;;;;;;3.90;99.90;;;;;;5076161;28;19931;-68
2022/11/26 06:01:00;;;;;;;;;;;3.80;99.90;;;;;;5094127;28;20266;-68
2022/11/26 06:03:25;;;;;;;;;;;3.80;99.90;;;;;;5094363;28;20194;-69
2022/11/26 06:05:51;;;;;;;;;;;3.90;99.90;;;;;;5094120;28;20373;-68
2022/11/26 06:08:16;;;;;;;;;;;3.90;99.90;;;;;;5093798;28;20309;-68
2022/11/26 06:10:42;;;;;;;;;;;3.90;99.90;;;;;;5094228;28;19912;-68
2022/11/26 06:13:07;;;;;;;;;;;4.10;99.90;;;;;;5094126;28;20395;-69
2022/11/26 06:15:33;;;;;;;;;;;4.20;99.90;;;;;;5094020;28;19912;-69
2022/11/26 06:17:58;;;;;;;;;;;4.10;99.90;;;;;;5094181;28;20429;-69
2022/11/26 06:20:24;;;;;;;;;;;4.10;99.90;;;;;;5076097;28;19914;-69
2022/11/26 06:22:50;;;;;;;;;;;4.10;99.90;;;;;;5094084;28;19973;-69
2022/11/26 06:25:16;;;;;;;;;;;4.40;99.90;;;;;;5075830;28;19909;-69
2022/11/26 06:27:42;;;;;;;;;;;4.50;99.90;;;;;;5093722;28;19994;-69
2022/11/26 06:30:10;;;;;;;;;;;4.50;99.90;;;;;;5094000;28;20004;-69
2022/11/26 06:32:35;;;;;;;;;;;4.40;99.90;;;;;;5093650;28;19920;-68
2022/11/26 06:35:01;;;;;;;;;;;4.30;99.90;;;;;;5093985;28;20377;-68
2022/11/26 06:37:26;;;;;;;;;;;4.20;99.90;;;;;;5093713;28;19927;-69
2022/11/26 06:39:51;;;;;;;;;;;4.10;99.90;;;;;;5075570;28;19908;-68
2022/11/26 06:42:17;;;;;;;;;;;4.10;99.90;;;;;;5093894;28;19912;-69
2022/11/26 06:44:43;;;;;;;;;;;4.10;99.90;;;;;;5093874;28;20320;-69
2022/11/26 06:47:10;;;;;;;;;;;4.30;99.90;;;;;;5075808;28;19916;-69
2022/11/26 06:49:35;;;;;;;;;;;4.30;99.90;;;;;;5093612;28;20003;-68
2022/11/26 06:52:01;;;;;;;;;;;4.30;99.90;;;;;;5093743;28;19954;-69
2022/11/26 06:54:26;;;;;;;;;;;4.30;99.90;;;;;;5093539;28;20351;-68
2022/11/26 06:56:52;;;;;;;;;;;4.30;99.90;;;;;;5093852;28;19908;-69
2022/11/26 06:59:17;;;;;;;;;;;4.40;99.90;;;;;;5093416;28;19912;-69
2022/11/26 07:01:43;;;;;;;;;;;4.40;99.90;;;;;;5075721;28;19969;-69
2022/11/26 07:04:09;;;;;;;;;;;4.50;99.90;;;;;;5093490;28;19915;-68
2022/11/26 07:06:34;;;;;;;;;;;4.60;99.90;;;;;;5093440;28;19908;-69
2022/11/26 07:09:03;;;;;;;;;;;4.60;99.90;;;;;;5093653;28;19931;-68
2022/11/26 07:11:28;;;;;;;;;;;4.40;99.90;;;;;;5093614;28;19915;-68
2022/11/26 07:13:54;;;;;;;;;;;4.40;99.90;;;;;;5093560;28;19912;-69
2022/11/26 07:16:19;;;;;;;;;;;4.30;99.90;;;;;;5093338;28;19950;-68
2022/11/26 07:18:47;;;;;;;;;;;4.30;99.90;;;;;;5093536;28;19955;-69
2022/11/26 07:21:13;;;;;;;;;;;4.30;99.90;;;;;;5097368;28;20438;-69
2022/11/26 07:23:39;;;;;;;;;;;4.30;99.90;;;;;;5097106;28;19908;-68
2022/11/26 07:26:05;;;;;;;;;;;4.30;99.90;;;;;;5097324;28;20282;-68
2022/11/26 07:28:31;;;;;;;;;;;4.30;99.90;;;;;;5096986;28;19908;-69
2022/11/26 07:31:01;;;;;;;;;;;4.30;99.90;;;;;;5096949;28;19908;-68
2022/11/26 07:33:27;;;;;;;;;;;4.50;99.90;;;;;;5096684;28;20391;-68
2022/11/26 07:35:52;;;;;;;;;;;4.60;99.90;;;;;;5097098;28;19954;-68
2022/11/26 07:38:17;;;;;;;;;;;4.70;99.90;;;;;;5096762;28;19973;-69
2022/11/26 07:40:43;;;;;;;;;;;4.80;99.90;;;;;;5096763;28;19908;-69
2022/11/26 07:43:08;;;;;;;;;;;5.00;99.90;;;;;;5096985;28;19915;-69
2022/11/26 07:45:35;;;;;;;;;;;5.00;99.90;;;;;;5096957;28;20431;-68
2022/11/26 07:48:00;;;;;;;;;;;5.10;99.90;;;;;;5096890;28;19917;-68
2022/11/26 07:50:26;;;;;;;;;;;5.30;99.90;;;;;;5096863;28;19913;-69
2022/11/26 07:52:51;;;;;;;;;;;5.50;99.90;;;;;;5096509;28;19912;-69
2022/11/26 07:55:17;;;;;;;;;;;5.70;99.90;;;;;;5096763;28;20007;-69
2022/11/26 07:57:42;;;;;;;;;;;5.90;99.90;;;;;;5096426;28;20305;-69
2022/11/26 08:00:08;;;;;;;;;;;5.80;99.90;;;;;;5096433;28;19908;-68
2022/11/26 08:02:33;;;;;;;;;;;5.70;99.90;;;;;;5096376;28;19995;-68
2022/11/26 08:04:59;;;;;;;;;;;6.00;99.90;;;;;;5078235;28;19950;-69
2022/11/26 08:07:24;;;;;;;;;;;6.40;99.90;;;;;;5096237;28;19912;-69
2022/11/26 08:09:50;;;;;;;;;;;6.40;99.90;;;;;;5096222;28;19908;-69
2022/11/26 08:12:15;;;;;;;;;;;6.60;99.90;;;;;;5096121;28;19909;-69
2022/11/26 08:14:41;;;;;;;;;;;7.20;99.90;;;;;;5096106;28;20293;-69
2022/11/26 08:17:06;;;;;;;;;;;7.60;99.90;;;;;;5096379;28;19908;-70
2022/11/26 08:19:32;;;;;;;;;;;7.50;99.90;;;;;;5096050;28;19908;-69
2022/11/26 08:21:57;;;;;;;;;;;7.50;99.90;;;;;;5096248;28;20344;-69
2022/11/26 08:24:22;;;;;;;;;;;7.50;99.90;;;;;;5095920;28;19915;-69
2022/11/26 08:26:48;;;;;;;;;;;7.80;99.90;;;;;;5096109;28;19914;-69
2022/11/26 08:29:14;;;;;;;;;;;8.00;99.90;;;;;;5095851;28;19908;-69
2022/11/26 08:31:40;;;;;;;;;;;7.90;99.90;;;;;;5095915;28;19958;-69
2022/11/26 08:34:05;;;;;;;;;;;8.10;99.90;;;;;;5095524;28;19924;-69
2022/11/26 08:36:31;;;;;;;;;;;8.20;99.90;;;;;;5095663;28;19908;-69
2022/11/26 08:38:57;;;;;;;;;;;8.30;99.90;;;;;;5095707;28;19915;-69
2022/11/26 08:41:23;;;;;;;;;;;8.80;99.90;;;;;;5077437;28;19908;-69
2022/11/26 08:43:48;;;;;;;;;;;9.10;99.90;;;;;;5077396;28;20270;-69
2022/11/26 08:46:14;;;;;;;;;;;9.40;99.90;;;;;;5095492;28;20258;-69
2022/11/26 08:48:40;;;;;;;;;;;9.40;99.90;;;;;;5077696;28;19915;-69
2022/11/26 08:51:07;;;;;;;;;;;9.50;99.90;;;;;;5095681;28;20250;-69
2022/11/26 08:53:33;;;;;;;;;;;9.70;99.90;;;;;;5095548;28;19912;-70
2022/11/26 08:55:59;;;;;;;;;;;9.70;99.90;;;;;;5077211;28;20370;-70
2022/11/26 08:58:25;;;;;;;;;;;9.70;99.90;;;;;;5095538;28;19908;-69
2022/11/26 09:00:50;;;;;;;;;;;9.90;99.90;;;;;;5095201;28;19957;-69
2022/11/26 09:03:16;;;;;;;;;;;10.20;99.90;;;;;;5095280;28;19909;-70
2022/11/26 09:05:41;;;;;;;;;;;10.30;99.90;;;;;;5095098;28;19908;-69
2022/11/26 09:08:07;;;;;;;;;;;10.20;99.90;;;;;;5095048;28;19958;-69
2022/11/26 09:10:32;;;;;;;;;;;10.20;99.90;;;;;;5095320;28;19909;-70
2022/11/26 09:12:58;;;;;;;;;;;10.30;99.90;;;;;;5094849;28;19920;-69
2022/11/26 09:15:23;;;;;;;;;;;10.60;99.90;;;;;;5094977;28;19917;-69
2022/11/26 09:17:49;;;;;;;;;;;10.60;99.90;;;;;;5094865;28;19908;-70
2022/11/26 09:20:14;;;;;;;;;;;10.90;99.90;;;;;;5094791;28;19908;-69
2022/11/26 09:22:40;;;;;;;;;;;11.10;99.90;;;;;;5076527;28;19908;-70
2022/11/26 09:25:05;;;;;;;;;;;11.40;99.90;;;;;;5094801;28;19971;-70
2022/11/26 09:27:31;;;;;;;;;;;11.50;99.90;;;;;;5094691;28;19944;-69
2022/11/26 09:29:56;;;;;;;;;;;11.30;99.90;;;;;;5094637;28;19970;-69
2022/11/26 09:32:22;;;;;;;;;;;11.10;99.90;;;;;;5094352;28;19977;-69
2022/11/26 09:34:47;;;;;;;;;;;11.50;99.90;;;;;;5094566;28;19912;-69
2022/11/26 09:37:13;;;;;;;;;;;11.60;99.90;;;;;;5076453;28;20011;-69
2022/11/26 09:39:38;;;;;;;;;;;11.40;99.90;;;;;;5094502;28;19915;-69
2022/11/26 09:42:06;;;;;;;;;;;11.40;99.90;;;;;;5094218;28;19912;-69
2022/11/26 09:44:38;;;;;;;;;;;11.60;99.90;;;;;;5094636;28;19947;-69
2022/11/26 09:47:21;;;;;;;;;;;11.80;99.90;;;;;;5076209;28;19908;-69
2022/11/26 09:49:50;;;;;;;;;;;11.50;99.90;;;;;;5094581;28;19995;-69
2022/11/26 09:52:17;;;;;;;;;;;11.90;99.90;;;;;;5094232;28;19908;-69
2022/11/26 09:54:43;;;;;;;;;;;11.90;99.90;;;;;;5094456;28;20032;-69
2022/11/26 09:57:28;;;;;;;;;;;11.70;99.90;;;;;;5094226;28;19908;-69
2022/11/26 09:59:54;;;;;;;;;;;11.80;99.90;;;;;;5094076;28;19908;-69
2022/11/26 10:02:20;;;;;;;;;;;11.50;99.90;;;;;;5094083;28;20386;-69
2022/11/26 10:04:45;;;;;;;;;;;11.20;99.90;;;;;;5094026;28;19961;-69
2022/11/26 10:07:21;;;;;;;;;;;11.10;99.90;;;;;;5094274;28;19908;-69
2022/11/26 10:12:38;;;;;;;;;;;11.30;99.90;;;;;;5132238;27;20391;-68
2022/11/26 10:15:23;;;;;;;;;;;11.20;99.90;;;;;;5130793;28;20289;-68
2022/11/26 10:18:02;;;;;;;;;;;11.20;99.90;;;;;;5131856;28;19926;-69
2022/11/26 10:20:47;;;;;;;;;;;11.20;99.90;;;;;;5131904;27;19915;-69
2022/11/26 10:23:16;;;;;;;;;;;11.10;99.90;;;;;;5131828;28;19908;-68
2022/11/26 10:25:47;;;;;;;;;;;10.70;99.90;;;;;;5132105;27;19914;-69
2022/11/26 10:28:23;;;;;;;;;;;10.50;99.90;;;;;;5131757;27;20388;-68
2022/11/26 10:30:54;;;;;;;;;;;10.80;99.90;;;;;;5131692;27;19915;-68
2022/11/26 10:33:20;;;;;;;;;;;10.50;99.90;;;;;;5131988;27;20372;-68
2022/11/26 10:35:47;;;;;;;;;;;10.80;99.90;;;;;;5131670;27;19915;-69
2022/11/26 10:38:13;;;;;;;;;;;11.10;99.90;;;;;;5131561;27;19908;-69
2022/11/26 10:40:38;;;;;;;;;;;11.30;99.90;;;;;;5131573;27;19918;-69
2022/11/26 10:45:44;;;;;;;;;;;11.30;99.90;;;;;;5091259;27;19913;-69
2022/11/26 10:48:15;;;;;;;;;;;11.10;99.90;;;;;;5091406;28;19919;-69
2022/11/26 10:50:42;;;;;;;;;;;11.10;99.90;;;;;;5091328;28;20338;-68
2022/11/26 10:53:18;;;;;;;;;;;11.30;99.90;;;;;;5091366;28;20320;-68
2022/11/26 10:55:43;;;;;;;;;;;11.20;99.90;;;;;;5090959;28;19915;-68
2022/11/26 10:58:18;;;;;;;;;;;11.10;99.90;;;;;;5091215;28;19999;-68
2022/11/26 11:00:53;;;;;;;;;;;10.90;99.90;;;;;;5090916;28;19913;-69
2022/11/26 11:03:21;;;;;;;;;;;11.10;99.90;;;;;;5090782;28;19908;-68
2022/11/26 11:05:47;;;;;;;;;;;11.30;99.90;;;;;;5090824;28;20374;-68
2022/11/26 11:08:13;;;;;;;;;;;11.20;99.90;;;;;;5091042;28;20038;-68
2022/11/26 11:10:51;;;;;;;;;;;11.30;99.90;;;;;;5090714;28;20275;-69
2022/11/26 11:13:17;;;;;;;;;;;11.10;99.90;;;;;;5090647;28;19914;-68
2022/11/26 11:15:42;;;;;;;;;;;10.90;99.90;;;;;;5090616;28;19908;-68
2022/11/26 11:20:51;;;;;;;;;;;10.80;99.90;;;;;;5071064;28;19919;-68
2022/11/26 11:23:18;;;;;;;;;;;10.60;99.90;;;;;;5071224;28;20381;-69
2022/11/26 11:25:55;;;;;;;;;;;10.60;99.90;;;;;;5086629;28;20382;-68
2022/11/26 11:28:21;;;;;;;;;;;10.40;99.90;;;;;;5070892;28;19916;-68
2022/11/26 11:30:58;;;;;;;;;;;10.40;99.90;;;;;;5069588;28;19951;-68
2022/11/26 11:33:25;;;;;;;;;;;10.30;99.90;;;;;;5071050;28;20263;-68
2022/11/26 11:35:56;;;;;;;;;;;10.30;99.90;;;;;;5070555;28;19912;-68
2022/11/26 11:38:22;;;;;;;;;;;10.40;99.90;;;;;;5070823;28;19909;-68
2022/11/26 11:40:48;;;;;;;;;;;10.30;99.90;;;;;;5070624;28;19951;-68
2022/11/26 11:43:14;;;;;;;;;;;10.50;99.90;;;;;;5070833;28;20323;-69
2022/11/26 11:45:41;;;;;;;;;;;10.60;99.90;;;;;;5069298;28;19952;-68
2022/11/26 11:48:26;;;;;;;;;;;10.60;99.90;;;;;;5070507;28;19909;-68
2022/11/26 11:51:12;;;;;;;;;;;10.60;99.90;;;;;;5070316;28;19909;-68
2022/11/26 11:53:57;;;;;;;;;;;10.60;99.90;;;;;;5070434;28;19913;-68
2022/11/26 11:56:27;;;;;;;;;;;10.60;99.90;;;;;;5070247;28;19916;-68
2022/11/26 11:59:12;;;;;;;;;;;10.50;99.90;;;;;;5086166;28;20374;-68
2022/11/26 12:01:52;;;;;;;;;;;10.40;99.90;;;;;;5070039;28;19979;-68
2022/11/26 12:04:37;;;;;;;;;;;10.50;99.90;;;;;;5070123;28;20026;-68
2022/11/26 12:07:23;;;;;;;;;;;10.60;99.90;;;;;;5070078;28;19909;-68
2022/11/26 12:10:06;;;;;;;;;;;10.70;99.90;;;;;;5068630;28;19908;-68
2022/11/26 12:12:49;;;;;;;;;;;10.70;99.90;;;;;;5070224;28;20417;-68
2022/11/26 12:15:20;;;;;;;;;;;10.70;99.90;;;;;;5070138;28;20371;-68
2022/11/26 12:17:49;;;;;;;;;;;10.90;99.90;;;;;;5070102;28;20012;-68
2022/11/26 12:20:19;;;;;;;;;;;10.90;99.90;;;;;;5085444;28;19971;-68
2022/11/26 12:22:50;;;;;;;;;;;10.90;99.90;;;;;;5090276;28;20003;-68
2022/11/26 12:25:35;;;;;;;;;;;11.00;99.90;;;;;;5090244;28;20382;-69
2022/11/26 12:28:04;;;;;;;;;;;11.10;99.90;;;;;;5089836;28;19913;-68
2022/11/26 12:30:35;;;;;;;;;;;10.90;99.90;;;;;;5067594;28;19920;-68
2022/11/26 12:33:05;;;;;;;;;;;11.00;99.90;;;;;;5076538;28;20293;-68
2022/11/26 12:35:34;;;;;;;;;;;11.10;99.90;;;;;;5076503;28;19908;-68
2022/11/26 12:38:03;;;;;;;;;;;11.10;99.90;;;;;;5076503;28;19912;-68
2022/11/26 12:40:32;;;;;;;;;;;11.00;99.90;;;;;;5076128;28;20313;-68
2022/11/26 12:43:08;;;;;;;;;;;11.10;99.90;;;;;;5076151;28;19915;-68
2022/11/26 12:45:52;;;;;;;;;;;11.20;99.90;;;;;;5076144;28;19909;-68
2022/11/26 12:48:22;;;;;;;;;;;11.10;99.90;;;;;;5076345;28;19955;-68
2022/11/26 12:50:58;;;;;;;;;;;11.00;99.90;;;;;;5076029;28;19944;-68
2022/11/26 12:53:32;;;;;;;;;;;10.90;99.90;;;;;;5076233;28;19931;-68
2022/11/26 12:58:57;;;;;;;;;;;10.90;99.90;;;;;;5091311;27;20289;-68
2022/11/26 13:01:24;;;;;;;;;;;10.90;99.90;;;;;;5091134;28;19916;-68
2022/11/26 13:03:50;;;;;;;;;;;10.80;99.90;;;;;;5091060;28;19944;-69
2022/11/26 13:06:28;;;;;;;;;;;10.80;99.90;;;;;;5091046;28;19908;-68
2022/11/26 13:09:00;;;;;;;;;;;10.80;99.90;;;;;;5090986;28;20346;-68
2022/11/26 13:11:31;;;;;;;;;;;10.80;99.90;;;;;;5091240;28;19909;-68
2022/11/26 13:14:05;;;;;;;;;;;10.90;99.90;;;;;;5090930;28;19912;-68
2022/11/26 13:16:36;;;;;;;;;;;10.80;99.90;;;;;;5090767;28;19916;-68
2022/11/26 13:19:20;;;;;;;;;;;10.90;99.90;;;;;;5091047;28;19909;-68
2022/11/26 13:22:06;;;;;;;;;;;11.00;99.90;;;;;;5090769;28;20004;-68
2022/11/26 13:24:38;;;;;;;;;;;11.00;99.90;;;;;;5090746;28;19944;-69
2022/11/26 13:27:12;;;;;;;;;;;11.10;99.90;;;;;;5090902;28;19909;-68
2022/11/26 13:29:49;;;;;;;;;;;11.00;99.90;;;;;;5090966;28;19915;-69
2022/11/26 13:32:35;;;;;;;;;;;11.00;99.90;;;;;;5090546;28;20366;-69
2022/11/26 13:35:13;;;;;;;;;;;11.10;99.90;;;;;;5090404;28;19955;-69
2022/11/26 13:37:59;;;;;;;;;;;11.00;99.90;;;;;;5090576;28;19913;-69
2022/11/26 13:40:44;;;;;;;;;;;11.00;99.90;;;;;;5090471;28;19909;-69
2022/11/26 13:43:29;;;;;;;;;;;11.00;99.90;;;;;;5090508;28;19908;-69
2022/11/26 13:46:06;;;;;;;;;;;10.90;99.90;;;;;;5090411;28;20342;-69
2022/11/26 13:48:35;;;;;;;;;;;10.90;99.90;;;;;;5090218;28;20392;-68
2022/11/26 13:51:05;;;;;;;;;;;10.80;99.90;;;;;;5090227;28;19940;-68
2022/11/26 13:53:35;;;;;;;;;;;10.80;99.90;;;;;;5090415;28;19912;-68
2022/11/26 13:56:02;;;;;;;;;;;10.70;99.90;;;;;;5090133;28;20365;-68
2022/11/26 13:58:29;;;;;;;;;;;10.70;99.90;;;;;;5108971;28;19975;-67
2022/11/26 14:00:55;;;;;;;;;;;10.70;99.90;;;;;;5110655;28;19908;-68
2022/11/26 14:03:40;;;;;;;;;;;10.60;99.90;;;;;;5110338;28;20335;-68
2022/11/26 14:06:06;;;;;;;;;;;10.70;99.90;;;;;;5110063;28;20341;-69
2022/11/26 14:08:34;;;;;;;;;;;10.70;99.90;;;;;;5086741;28;19908;-69
2022/11/26 14:10:59;;;;;;;;;;;10.60;99.90;;;;;;5096866;28;19908;-68
2022/11/26 14:13:26;;;;;;;;;;;10.60;99.90;;;;;;5096579;28;19908;-69
2022/11/26 14:15:53;;;;;;;;;;;10.60;99.90;;;;;;5096759;28;20313;-68
2022/11/26 14:18:38;;;;;;;;;;;10.60;99.90;;;;;;5096409;28;20011;-69
2022/11/26 14:21:07;;;;;;;;;;;10.60;99.90;;;;;;5096308;28;20413;-69
2022/11/26 14:23:41;;;;;;;;;;;10.50;99.90;;;;;;5096640;28;19912;-69
2022/11/26 14:26:12;;;;;;;;;;;10.50;99.90;;;;;;5096586;28;20015;-68
2022/11/26 14:28:38;;;;;;;;;;;10.50;99.90;;;;;;5096228;28;19915;-68
2022/11/26 14:31:12;;;;;;;;;;;10.50;99.90;;;;;;5096158;28;19909;-68
2022/11/26 14:33:43;;;;;;;;;;;10.40;99.90;;;;;;5096172;28;19915;-68
2022/11/26 14:36:29;;;;;;;;;;;10.40;99.90;;;;;;5096434;28;19912;-68
2022/11/26 14:39:02;;;;;;;;;;;10.30;99.90;;;;;;5096006;28;19912;-68
2022/11/26 14:41:32;;;;;;;;;;;10.30;99.90;;;;;;5096295;28;19908;-68
2022/11/26 14:44:06;;;;;;;;;;;10.30;99.90;;;;;;5078001;28;19953;-68
2022/11/26 14:46:31;;;;;;;;;;;10.30;99.90;;;;;;5095933;28;19908;-68
2022/11/26 14:48:57;;;;;;;;;;;10.20;99.90;;;;;;5077852;28;19908;-68
2022/11/26 14:51:25;;;;;;;;;;;10.20;99.90;;;;;;5095848;28;19908;-68